Tampa, Florida
Traffic Map
Current Weather Conditions
Tampa, Florida
Broken Clouds
Broken Clouds
20°
Feels Like: 20°
Wind Chill: 20° Ceiling: 13000
Heat Index: 20° Visibility: 9mi
Dew Point: 18° Wind: 5mph
Humidity: 87% Direction: 140° (SE)
Pressure: 30in Gusts: 0mph
Raw Report DataKTPA 221253Z 14004KT 9SM FEW010 FEW055 BKN130 BKN250 20/18 A3000 RMK AO2 SLP158 T02000178
Traffic Incident Summary
Active as of:
Severity:
Category:
InformationThere was an issue retrieving the traffic information for this location. Please try a different location or try again shortly.
Advertisements
Track Severe Weather on mobile